sensor_id;sensor_type;location;lat;lon;timestamp;pressure;altitude;pressure_sealevel;temperature;humidity
49949;BME280;35840;45.982;8.890;2022-09-09T00:00:15;98034.00;;;20.36;78.37
49949;BME280;35840;45.982;8.890;2022-09-09T00:02:54;98035.94;;;20.34;78.51
49949;BME280;35840;45.982;8.890;2022-09-09T00:05:30;98042.50;;;20.30;78.43
49949;BME280;35840;45.982;8.890;2022-09-09T00:08:00;98039.22;;;20.28;79.45
49949;BME280;35840;45.982;8.890;2022-09-09T00:10:31;98041.50;;;20.31;79.48
49949;BME280;35840;45.982;8.890;2022-09-09T00:18:51;98032.06;;;20.30;79.81
49949;BME280;35840;45.982;8.890;2022-09-09T00:21:25;98018.50;;;20.35;79.30
49949;BME280;35840;45.982;8.890;2022-09-09T00:23:57;98028.78;;;20.36;79.88
49949;BME280;35840;45.982;8.890;2022-09-09T00:26:33;98028.13;;;20.42;79.35
49949;BME280;35840;45.982;8.890;2022-09-09T00:31:40;98016.06;;;20.41;79.58
49949;BME280;35840;45.982;8.890;2022-09-09T00:34:22;98004.31;;;20.37;79.40
49949;BME280;35840;45.982;8.890;2022-09-09T00:36:52;98011.81;;;20.40;79.46
49949;BME280;35840;45.982;8.890;2022-09-09T00:39:31;97998.75;;;20.40;79.47
49949;BME280;35840;45.982;8.890;2022-09-09T00:42:06;97997.63;;;20.43;79.57
49949;BME280;35840;45.982;8.890;2022-09-09T00:44:38;97985.03;;;20.38;79.70
49949;BME280;35840;45.982;8.890;2022-09-09T00:50:17;98008.72;;;20.45;81.23
49949;BME280;35840;45.982;8.890;2022-09-09T00:53:15;98000.88;;;20.45;80.91
49949;BME280;35840;45.982;8.890;2022-09-09T00:55:59;97994.84;;;20.36;81.58
49949;BME280;35840;45.982;8.890;2022-09-09T00:58:28;97979.84;;;20.30;81.21
49949;BME280;35840;45.982;8.890;2022-09-09T01:01:05;97978.69;;;20.33;82.04
49949;BME280;35840;45.982;8.890;2022-09-09T01:03:46;97979.69;;;20.32;81.91
49949;BME280;35840;45.982;8.890;2022-09-09T01:06:22;97970.69;;;20.34;80.99
49949;BME280;35840;45.982;8.890;2022-09-09T01:11:51;97978.22;;;20.21;81.05
49949;BME280;35840;45.982;8.890;2022-09-09T01:17:21;97991.09;;;20.14;81.78
49949;BME280;35840;45.982;8.890;2022-09-09T01:20:08;97972.34;;;20.10;81.83
49949;BME280;35840;45.982;8.890;2022-09-09T01:28:21;97983.25;;;20.22;81.47
49949;BME280;35840;45.982;8.890;2022-09-09T01:30:51;97977.06;;;20.15;81.89
49949;BME280;35840;45.982;8.890;2022-09-09T01:33:21;97979.69;;;20.15;82.42
49949;BME280;35840;45.982;8.890;2022-09-09T01:35:58;97995.00;;;20.18;81.99
49949;BME280;35840;45.982;8.890;2022-09-09T01:38:32;97999.44;;;20.18;82.09
49949;BME280;35840;45.982;8.890;2022-09-09T01:40:59;98008.56;;;20.22;82.25
49949;BME280;35840;45.982;8.890;2022-09-09T01:43:36;97988.66;;;20.21;81.89
49949;BME280;35840;45.982;8.890;2022-09-09T01:46:03;97984.56;;;20.18;82.30
49949;BME280;35840;45.982;8.890;2022-09-09T01:48:33;98000.06;;;20.28;82.48
49949;BME280;35840;45.982;8.890;2022-09-09T01:51:03;98010.84;;;20.33;82.15
49949;BME280;35840;45.982;8.890;2022-09-09T01:53:30;98012.31;;;20.36;82.55
49949;BME280;35840;45.982;8.890;2022-09-09T01:58:51;97977.72;;;20.25;82.22
49949;BME280;35840;45.982;8.890;2022-09-09T02:03:56;97974.28;;;20.33;83.32
49949;BME280;35840;45.982;8.890;2022-09-09T02:06:38;97984.06;;;20.31;83.39
49949;BME280;35840;45.982;8.890;2022-09-09T02:09:23;97991.91;;;20.31;80.55
49949;BME280;35840;45.982;8.890;2022-09-09T02:12:13;97992.56;;;20.25;80.56
49949;BME280;35840;45.982;8.890;2022-09-09T02:14:55;97985.69;;;20.16;81.11
49949;BME280;35840;45.982;8.890;2022-09-09T02:17:29;97975.44;;;20.14;80.57
49949;BME280;35840;45.982;8.890;2022-09-09T02:20:12;97958.63;;;20.08;79.04
49949;BME280;35840;45.982;8.890;2022-09-09T02:22:48;97956.69;;;20.10;79.21
49949;BME280;35840;45.982;8.890;2022-09-09T02:25:19;97976.25;;;20.06;80.24
49949;BME280;35840;45.982;8.890;2022-09-09T02:27:50;97998.91;;;20.06;82.11
49949;BME280;35840;45.982;8.890;2022-09-09T02:30:18;98005.09;;;19.88;84.20
49949;BME280;35840;45.982;8.890;2022-09-09T02:32:56;98004.44;;;19.94;84.62
49949;BME280;35840;45.982;8.890;2022-09-09T02:35:58;97965.97;;;19.88;85.54
49949;BME280;35840;45.982;8.890;2022-09-09T02:38:34;97971.19;;;19.97;81.99
49949;BME280;35840;45.982;8.890;2022-09-09T02:41:08;97975.44;;;19.89;78.36
49949;BME280;35840;45.982;8.890;2022-09-09T02:43:35;97984.41;;;19.95;77.57
49949;BME280;35840;45.982;8.890;2022-09-09T02:46:32;97994.66;;;19.88;76.23
49949;BME280;35840;45.982;8.890;2022-09-09T02:49:09;98001.84;;;19.86;74.57
49949;BME280;35840;45.982;8.890;2022-09-09T02:51:59;98011.72;;;19.74;75.80
49949;BME280;35840;45.982;8.890;2022-09-09T02:54:31;98000.00;;;19.78;78.06
49949;BME280;35840;45.982;8.890;2022-09-09T02:57:20;97983.69;;;19.76;79.03
49949;BME280;35840;45.982;8.890;2022-09-09T02:59:49;97978.19;;;19.80;80.31
49949;BME280;35840;45.982;8.890;2022-09-09T03:02:16;98002.97;;;19.84;81.56
49949;BME280;35840;45.982;8.890;2022-09-09T03:04:46;98013.69;;;19.72;81.76
49949;BME280;35840;45.982;8.890;2022-09-09T03:07:21;98012.03;;;19.63;81.79
49949;BME280;35840;45.982;8.890;2022-09-09T03:09:49;98005.19;;;19.62;82.52
49949;BME280;35840;45.982;8.890;2022-09-09T03:12:16;97995.22;;;19.57;82.67
49949;BME280;35840;45.982;8.890;2022-09-09T03:14:43;97985.09;;;19.46;84.00
49949;BME280;35840;45.982;8.890;2022-09-09T03:17:12;97987.69;;;19.38;84.26
49949;BME280;35840;45.982;8.890;2022-09-09T03:19:45;97996.31;;;19.38;84.96
49949;BME280;35840;45.982;8.890;2022-09-09T03:22:12;97991.28;;;19.45;84.84
49949;BME280;35840;45.982;8.890;2022-09-09T03:24:41;97998.78;;;19.48;84.17
49949;BME280;35840;45.982;8.890;2022-09-09T03:27:08;97995.03;;;19.42;83.58
49949;BME280;35840;45.982;8.890;2022-09-09T03:29:36;98004.94;;;19.39;83.37
49949;BME280;35840;45.982;8.890;2022-09-09T03:32:07;98003.47;;;19.36;84.35
49949;BME280;35840;45.982;8.890;2022-09-09T03:34:37;98017.94;;;19.31;84.98
49949;BME280;35840;45.982;8.890;2022-09-09T03:37:10;98019.25;;;19.26;85.11
49949;BME280;35840;45.982;8.890;2022-09-09T03:39:36;98011.41;;;19.18;86.64
49949;BME280;35840;45.982;8.890;2022-09-09T03:42:03;98027.19;;;19.25;85.40
49949;BME280;35840;45.982;8.890;2022-09-09T03:44:31;98030.13;;;19.22;81.35
49949;BME280;35840;45.982;8.890;2022-09-09T03:46:57;98040.22;;;19.25;79.50
49949;BME280;35840;45.982;8.890;2022-09-09T03:49:26;98032.41;;;19.25;77.89
49949;BME280;35840;45.982;8.890;2022-09-09T03:51:56;98039.94;;;19.28;77.55
49949;BME280;35840;45.982;8.890;2022-09-09T03:54:24;98026.25;;;19.26;78.02
49949;BME280;35840;45.982;8.890;2022-09-09T03:56:51;98021.19;;;19.24;75.78
49949;BME280;35840;45.982;8.890;2022-09-09T03:59:18;98016.94;;;19.15;74.63
49949;BME280;35840;45.982;8.890;2022-09-09T04:01:47;98017.56;;;19.17;76.18
49949;BME280;35840;45.982;8.890;2022-09-09T04:04:14;98010.13;;;19.22;76.77
49949;BME280;35840;45.982;8.890;2022-09-09T04:06:40;97999.53;;;19.24;76.74
49949;BME280;35840;45.982;8.890;2022-09-09T04:09:07;97995.28;;;19.23;76.71
49949;BME280;35840;45.982;8.890;2022-09-09T04:11:34;97996.47;;;19.02;76.42
49949;BME280;35840;45.982;8.890;2022-09-09T04:14:00;97995.78;;;18.92;77.15
49949;BME280;35840;45.982;8.890;2022-09-09T04:16:29;98012.38;;;18.91;76.31
49949;BME280;35840;45.982;8.890;2022-09-09T04:18:56;98016.38;;;18.77;77.31
49949;BME280;35840;45.982;8.890;2022-09-09T04:21:22;98019.47;;;18.81;78.20
49949;BME280;35840;45.982;8.890;2022-09-09T04:23:49;98026.16;;;18.83;79.00
49949;BME280;35840;45.982;8.890;2022-09-09T04:26:16;98033.53;;;18.88;80.27
49949;BME280;35840;45.982;8.890;2022-09-09T04:28:44;98023.25;;;18.86;80.52
49949;BME280;35840;45.982;8.890;2022-09-09T04:31:18;98024.28;;;18.93;80.40
49949;BME280;35840;45.982;8.890;2022-09-09T04:33:48;98019.13;;;19.02;80.25
49949;BME280;35840;45.982;8.890;2022-09-09T04:36:16;98019.81;;;19.04;79.97
49949;BME280;35840;45.982;8.890;2022-09-09T04:38:45;98020.59;;;19.04;79.79
49949;BME280;35840;45.982;8.890;2022-09-09T04:41:13;98014.44;;;19.05;80.17
49949;BME280;35840;45.982;8.890;2022-09-09T04:43:42;98008.53;;;19.03;79.61
49949;BME280;35840;45.982;8.890;2022-09-09T04:46:09;98013.28;;;19.08;79.16
49949;BME280;35840;45.982;8.890;2022-09-09T04:48:36;98016.03;;;19.06;79.63
49949;BME280;35840;45.982;8.890;2022-09-09T04:51:08;98004.78;;;18.98;79.33
49949;BME280;35840;45.982;8.890;2022-09-09T04:53:35;98019.13;;;19.02;79.94
49949;BME280;35840;45.982;8.890;2022-09-09T04:56:12;98011.09;;;18.95;80.32
49949;BME280;35840;45.982;8.890;2022-09-09T04:58:47;98012.94;;;19.03;80.73
49949;BME280;35840;45.982;8.890;2022-09-09T05:01:17;98017.63;;;18.99;81.11
49949;BME280;35840;45.982;8.890;2022-09-09T05:03:46;98012.59;;;18.98;81.13
49949;BME280;35840;45.982;8.890;2022-09-09T05:06:17;98025.97;;;19.03;80.91
49949;BME280;35840;45.982;8.890;2022-09-09T05:08:47;98032.97;;;19.02;81.37
49949;BME280;35840;45.982;8.890;2022-09-09T05:11:29;98031.94;;;18.95;83.43
49949;BME280;35840;45.982;8.890;2022-09-09T05:14:01;98030.34;;;18.76;82.71
49949;BME280;35840;45.982;8.890;2022-09-09T05:16:30;98039.50;;;18.80;82.51
49949;BME280;35840;45.982;8.890;2022-09-09T05:18:57;98032.59;;;18.71;82.58
49949;BME280;35840;45.982;8.890;2022-09-09T05:21:25;98036.47;;;18.67;82.49
49949;BME280;35840;45.982;8.890;2022-09-09T05:23:52;98034.25;;;18.54;82.90
49949;BME280;35840;45.982;8.890;2022-09-09T05:26:21;98044.97;;;18.51;83.57
49949;BME280;35840;45.982;8.890;2022-09-09T05:28:50;98041.50;;;18.42;83.28
49949;BME280;35840;45.982;8.890;2022-09-09T05:31:18;98032.44;;;18.28;83.21
49949;BME280;35840;45.982;8.890;2022-09-09T05:33:49;98050.94;;;18.43;83.34
49949;BME280;35840;45.982;8.890;2022-09-09T05:36:21;98051.00;;;18.51;82.59
49949;BME280;35840;45.982;8.890;2022-09-09T05:38:51;98038.66;;;18.53;83.20
49949;BME280;35840;45.982;8.890;2022-09-09T05:41:20;98037.88;;;18.61;82.91
49949;BME280;35840;45.982;8.890;2022-09-09T05:43:50;98040.47;;;18.61;80.58
49949;BME280;35840;45.982;8.890;2022-09-09T05:46:19;98056.31;;;18.68;80.98
49949;BME280;35840;45.982;8.890;2022-09-09T05:48:48;98051.75;;;18.62;81.68
49949;BME280;35840;45.982;8.890;2022-09-09T05:51:25;98055.84;;;18.64;82.41
49949;BME280;35840;45.982;8.890;2022-09-09T05:53:55;98055.84;;;18.64;82.72
49949;BME280;35840;45.982;8.890;2022-09-09T05:56:28;98068.28;;;18.79;83.04
49949;BME280;35840;45.982;8.890;2022-09-09T05:58:58;98066.81;;;18.76;82.04
49949;BME280;35840;45.982;8.890;2022-09-09T06:01:28;98080.84;;;18.83;82.45
49949;BME280;35840;45.982;8.890;2022-09-09T06:03:56;98057.72;;;18.80;81.74
49949;BME280;35840;45.982;8.890;2022-09-09T06:06:30;98077.13;;;18.86;80.91
49949;BME280;35840;45.982;8.890;2022-09-09T06:08:59;98076.59;;;18.82;80.83
49949;BME280;35840;45.982;8.890;2022-09-09T06:11:31;98092.06;;;18.84;80.82
49949;BME280;35840;45.982;8.890;2022-09-09T06:13:59;98098.13;;;18.84;80.85
49949;BME280;35840;45.982;8.890;2022-09-09T06:16:29;98103.72;;;18.89;79.71
49949;BME280;35840;45.982;8.890;2022-09-09T06:18:56;98097.28;;;18.84;77.84
49949;BME280;35840;45.982;8.890;2022-09-09T06:21:27;98088.50;;;18.85;78.11
49949;BME280;35840;45.982;8.890;2022-09-09T06:23:54;98080.28;;;18.71;78.15
49949;BME280;35840;45.982;8.890;2022-09-09T06:26:34;98094.28;;;18.70;78.59
49949;BME280;35840;45.982;8.890;2022-09-09T06:29:03;98080.06;;;18.65;78.78
49949;BME280;35840;45.982;8.890;2022-09-09T06:31:33;98085.59;;;18.62;79.47
49949;BME280;35840;45.982;8.890;2022-09-09T06:34:07;98092.13;;;18.66;80.88
49949;BME280;35840;45.982;8.890;2022-09-09T06:36:38;98096.72;;;18.54;79.93
49949;BME280;35840;45.982;8.890;2022-09-09T06:39:07;98082.81;;;18.63;80.20
49949;BME280;35840;45.982;8.890;2022-09-09T06:41:40;98074.25;;;18.71;80.51
49949;BME280;35840;45.982;8.890;2022-09-09T06:44:21;98080.03;;;18.83;80.69
49949;BME280;35840;45.982;8.890;2022-09-09T06:46:49;98079.63;;;18.87;79.52
49949;BME280;35840;45.982;8.890;2022-09-09T06:49:16;98074.25;;;18.89;79.31
49949;BME280;35840;45.982;8.890;2022-09-09T06:51:43;98075.88;;;18.72;79.48
49949;BME280;35840;45.982;8.890;2022-09-09T06:54:12;98075.50;;;18.85;78.82
49949;BME280;35840;45.982;8.890;2022-09-09T06:56:42;98079.97;;;18.92;77.97
49949;BME280;35840;45.982;8.890;2022-09-09T06:59:20;98072.00;;;18.94;78.99
49949;BME280;35840;45.982;8.890;2022-09-09T07:01:47;98061.44;;;18.96;80.26
49949;BME280;35840;45.982;8.890;2022-09-09T07:04:21;98071.78;;;19.14;79.78
49949;BME280;35840;45.982;8.890;2022-09-09T07:06:47;98074.59;;;19.20;80.13
49949;BME280;35840;45.982;8.890;2022-09-09T07:09:20;98077.25;;;19.29;79.29
49949;BME280;35840;45.982;8.890;2022-09-09T07:11:51;98080.06;;;19.35;73.34
49949;BME280;35840;45.982;8.890;2022-09-09T07:14:22;98074.16;;;19.33;75.01
49949;BME280;35840;45.982;8.890;2022-09-09T07:16:54;98073.69;;;19.30;75.97
49949;BME280;35840;45.982;8.890;2022-09-09T07:19:26;98074.47;;;19.30;75.57
49949;BME280;35840;45.982;8.890;2022-09-09T07:21:54;98082.97;;;19.32;76.55
49949;BME280;35840;45.982;8.890;2022-09-09T07:24:23;98075.75;;;19.26;75.73
49949;BME280;35840;45.982;8.890;2022-09-09T07:26:50;98083.78;;;19.33;75.52
49949;BME280;35840;45.982;8.890;2022-09-09T07:29:19;98071.72;;;19.32;74.99
49949;BME280;35840;45.982;8.890;2022-09-09T07:31:47;98071.91;;;19.38;74.92
49949;BME280;35840;45.982;8.890;2022-09-09T07:34:19;98082.38;;;19.47;74.84
49949;BME280;35840;45.982;8.890;2022-09-09T07:36:46;98085.16;;;19.45;72.82
49949;BME280;35840;45.982;8.890;2022-09-09T07:39:14;98076.53;;;19.53;72.00
49949;BME280;35840;45.982;8.890;2022-09-09T07:41:47;98067.78;;;19.62;71.38
49949;BME280;35840;45.982;8.890;2022-09-09T07:44:20;98077.78;;;19.75;71.82
49949;BME280;35840;45.982;8.890;2022-09-09T07:46:58;98074.53;;;19.81;73.22
49949;BME280;35840;45.982;8.890;2022-09-09T07:49:31;98084.19;;;19.81;73.43
49949;BME280;35840;45.982;8.890;2022-09-09T07:52:00;98081.72;;;19.79;73.36
49949;BME280;35840;45.982;8.890;2022-09-09T07:54:27;98061.72;;;19.61;71.69
49949;BME280;35840;45.982;8.890;2022-09-09T07:56:54;98074.66;;;19.71;72.42
49949;BME280;35840;45.982;8.890;2022-09-09T07:59:24;98054.41;;;19.57;69.97
49949;BME280;35840;45.982;8.890;2022-09-09T08:01:53;98085.41;;;19.68;71.10
49949;BME280;35840;45.982;8.890;2022-09-09T08:04:24;98069.59;;;19.70;70.33
49949;BME280;35840;45.982;8.890;2022-09-09T08:06:55;98084.19;;;19.81;70.92
49949;BME280;35840;45.982;8.890;2022-09-09T08:09:24;98077.31;;;19.80;70.24
49949;BME280;35840;45.982;8.890;2022-09-09T08:11:56;98074.31;;;19.74;71.13
49949;BME280;35840;45.982;8.890;2022-09-09T08:14:23;98070.41;;;19.70;71.82
49949;BME280;35840;45.982;8.890;2022-09-09T08:16:50;98080.06;;;19.78;71.22
49949;BME280;35840;45.982;8.890;2022-09-09T08:19:22;98075.34;;;19.82;71.61
49949;BME280;35840;45.982;8.890;2022-09-09T08:21:50;98080.94;;;19.95;71.53
49949;BME280;35840;45.982;8.890;2022-09-09T08:24:17;98077.69;;;20.01;71.57
49949;BME280;35840;45.982;8.890;2022-09-09T08:26:48;98080.13;;;20.03;69.28
49949;BME280;35840;45.982;8.890;2022-09-09T08:29:20;98088.63;;;19.97;69.15
49949;BME280;35840;45.982;8.890;2022-09-09T08:31:52;98072.59;;;19.91;69.80
49949;BME280;35840;45.982;8.890;2022-09-09T08:34:21;98078.19;;;20.05;69.17
49949;BME280;35840;45.982;8.890;2022-09-09T08:36:50;98084.09;;;20.15;66.88
49949;BME280;35840;45.982;8.890;2022-09-09T08:39:21;98074.13;;;20.10;67.14
49949;BME280;35840;45.982;8.890;2022-09-09T08:50:56;98069.91;;;20.34;67.40
49949;BME280;35840;45.982;8.890;2022-09-09T08:58:20;98076.94;;;20.50;66.93
49949;BME280;35840;45.982;8.890;2022-09-09T09:11:43;98071.09;;;20.73;64.78
49949;BME280;35840;45.982;8.890;2022-09-09T09:14:23;98079.72;;;20.81;64.71
49949;BME280;35840;45.982;8.890;2022-09-09T09:17:04;98073.53;;;20.83;63.66
49949;BME280;35840;45.982;8.890;2022-09-09T09:19:34;98085.41;;;20.85;63.59
49949;BME280;35840;45.982;8.890;2022-09-09T09:22:39;98065.34;;;20.86;65.55
49949;BME280;35840;45.982;8.890;2022-09-09T09:25:22;98074.50;;;20.98;65.98
49949;BME280;35840;45.982;8.890;2022-09-09T09:28:03;98084.59;;;21.01;65.15
49949;BME280;35840;45.982;8.890;2022-09-09T09:30:46;98074.78;;;21.03;66.23
49949;BME280;35840;45.982;8.890;2022-09-09T09:33:31;98064.66;;;21.08;63.32
49949;BME280;35840;45.982;8.890;2022-09-09T09:36:00;98072.50;;;21.08;62.14
49949;BME280;35840;45.982;8.890;2022-09-09T09:38:28;98069.56;;;21.03;62.86
49949;BME280;35840;45.982;8.890;2022-09-09T09:41:15;98059.44;;;21.00;63.39
49949;BME280;35840;45.982;8.890;2022-09-09T09:43:53;98059.94;;;21.04;63.94
49949;BME280;35840;45.982;8.890;2022-09-09T09:46:24;98072.47;;;21.17;65.62
49949;BME280;35840;45.982;8.890;2022-09-09T09:49:01;98054.19;;;21.17;64.68
49949;BME280;35840;45.982;8.890;2022-09-09T09:51:31;98061.00;;;21.26;64.05
49949;BME280;35840;45.982;8.890;2022-09-09T09:56:53;98059.06;;;21.28;62.78
49949;BME280;35840;45.982;8.890;2022-09-09T10:02:24;98052.44;;;21.40;63.01
49949;BME280;35840;45.982;8.890;2022-09-09T10:05:03;98053.28;;;21.41;63.00
49949;BME280;35840;45.982;8.890;2022-09-09T10:07:32;98049.16;;;21.46;62.46
49949;BME280;35840;45.982;8.890;2022-09-09T10:09:59;98043.41;;;21.51;63.32
49949;BME280;35840;45.982;8.890;2022-09-09T10:24:02;98042.81;;;21.80;62.33
49949;BME280;35840;45.982;8.890;2022-09-09T10:26:50;98039.69;;;21.85;62.96
49949;BME280;35840;45.982;8.890;2022-09-09T10:29:38;98049.47;;;21.83;61.99
49949;BME280;35840;45.982;8.890;2022-09-09T10:34:52;98031.16;;;21.83;62.51
49949;BME280;35840;45.982;8.890;2022-09-09T10:37:41;98034.25;;;21.87;61.66
49949;BME280;35840;45.982;8.890;2022-09-09T10:40:32;98025.53;;;21.94;61.69
49949;BME280;35840;45.982;8.890;2022-09-09T10:51:28;98021.59;;;22.22;61.13
49949;BME280;35840;45.982;8.890;2022-09-09T10:56:44;98023.13;;;22.16;60.35
49949;BME280;35840;45.982;8.890;2022-09-09T10:59:18;98021.78;;;22.20;62.38
49949;BME280;35840;45.982;8.890;2022-09-09T11:01:50;98013.22;;;22.26;61.35
49949;BME280;35840;45.982;8.890;2022-09-09T11:04:48;98016.88;;;22.40;62.69
49949;BME280;35840;45.982;8.890;2022-09-09T11:07:37;98002.72;;;22.49;63.59
49949;BME280;35840;45.982;8.890;2022-09-09T11:10:21;98000.50;;;22.61;61.77
49949;BME280;35840;45.982;8.890;2022-09-09T11:12:53;98010.59;;;22.79;63.86
49949;BME280;35840;45.982;8.890;2022-09-09T11:15:35;98005.47;;;22.86;64.84
49949;BME280;35840;45.982;8.890;2022-09-09T11:18:04;97991.75;;;22.84;62.64
49949;BME280;35840;45.982;8.890;2022-09-09T11:20:33;97997.25;;;22.89;63.28
49949;BME280;35840;45.982;8.890;2022-09-09T11:23:10;97991.53;;;23.00;62.30
49949;BME280;35840;45.982;8.890;2022-09-09T11:25:43;97985.78;;;23.05;59.83
49949;BME280;35840;45.982;8.890;2022-09-09T11:28:32;97993.47;;;23.07;60.76
49949;BME280;35840;45.982;8.890;2022-09-09T11:31:27;97991.38;;;23.17;61.68
49949;BME280;35840;45.982;8.890;2022-09-09T11:34:07;97986.41;;;23.07;60.34
49949;BME280;35840;45.982;8.890;2022-09-09T11:42:27;97998.88;;;23.20;62.28
49949;BME280;35840;45.982;8.890;2022-09-09T11:44:54;97983.72;;;23.15;60.94
49949;BME280;35840;45.982;8.890;2022-09-09T11:47:24;97981.53;;;23.04;62.99
49949;BME280;35840;45.982;8.890;2022-09-09T11:50:08;97971.03;;;22.89;61.63
49949;BME280;35840;45.982;8.890;2022-09-09T11:52:37;97983.94;;;22.91;61.87
49949;BME280;35840;45.982;8.890;2022-09-09T11:55:33;97980.16;;;22.93;62.58
49949;BME280;35840;45.982;8.890;2022-09-09T11:58:16;97978.72;;;22.91;62.90
49949;BME280;35840;45.982;8.890;2022-09-09T12:00:46;97982.34;;;22.90;62.30
49949;BME280;35840;45.982;8.890;2022-09-09T12:06:00;97977.34;;;23.25;61.35
49949;BME280;35840;45.982;8.890;2022-09-09T12:08:35;97973.38;;;23.29;59.84
49949;BME280;35840;45.982;8.890;2022-09-09T12:11:03;97975.88;;;23.37;60.46
49949;BME280;35840;45.982;8.890;2022-09-09T12:13:30;97962.09;;;23.50;61.42
49949;BME280;35840;45.982;8.890;2022-09-09T12:15:59;97973.19;;;23.67;57.03
49949;BME280;35840;45.982;8.890;2022-09-09T12:18:34;97967.31;;;23.65;58.32
49949;BME280;35840;45.982;8.890;2022-09-09T12:21:21;97956.69;;;23.73;59.35
49949;BME280;35840;45.982;8.890;2022-09-09T12:23:56;97954.50;;;23.77;57.67
49949;BME280;35840;45.982;8.890;2022-09-09T12:26:41;97969.63;;;23.75;55.83
49949;BME280;35840;45.982;8.890;2022-09-09T12:32:15;97953.03;;;23.16;56.72
49949;BME280;35840;45.982;8.890;2022-09-09T12:34:53;97960.72;;;23.02;58.16
49949;BME280;35840;45.982;8.890;2022-09-09T12:37:31;97952.69;;;22.89;58.09
49949;BME280;35840;45.982;8.890;2022-09-09T12:40:01;97957.56;;;22.92;58.83
49949;BME280;35840;45.982;8.890;2022-09-09T12:42:29;97943.72;;;22.98;60.26
49949;BME280;35840;45.982;8.890;2022-09-09T12:44:58;97939.31;;;23.14;56.62
49949;BME280;35840;45.982;8.890;2022-09-09T12:50:32;97944.06;;;23.62;58.65
49949;BME280;35840;45.982;8.890;2022-09-09T12:53:33;97942.06;;;23.85;56.12
49949;BME280;35840;45.982;8.890;2022-09-09T12:56:06;97932.06;;;23.96;55.26
49949;BME280;35840;45.982;8.890;2022-09-09T12:58:36;97937.16;;;23.97;54.50
49949;BME280;35840;45.982;8.890;2022-09-09T13:01:05;97932.19;;;24.09;53.16
49949;BME280;35840;45.982;8.890;2022-09-09T13:03:33;97924.13;;;24.11;52.93
49949;BME280;35840;45.982;8.890;2022-09-09T13:06:33;97917.81;;;24.05;52.41
49949;BME280;35840;45.982;8.890;2022-09-09T13:09:01;97911.44;;;23.93;51.82
49949;BME280;35840;45.982;8.890;2022-09-09T13:11:35;97916.50;;;23.94;52.23
49949;BME280;35840;45.982;8.890;2022-09-09T13:14:03;97918.06;;;23.88;52.85
49949;BME280;35840;45.982;8.890;2022-09-09T13:16:32;97903.69;;;23.63;52.33
49949;BME280;35840;45.982;8.890;2022-09-09T13:19:13;97919.81;;;23.60;55.01
49949;BME280;35840;45.982;8.890;2022-09-09T13:21:41;97901.19;;;23.76;56.28
49949;BME280;35840;45.982;8.890;2022-09-09T13:24:28;97904.63;;;23.98;54.56
49949;BME280;35840;45.982;8.890;2022-09-09T13:26:57;97905.81;;;23.96;53.40
49949;BME280;35840;45.982;8.890;2022-09-09T13:29:24;97911.94;;;24.03;54.24
49949;BME280;35840;45.982;8.890;2022-09-09T13:31:51;97910.53;;;24.07;51.73
49949;BME280;35840;45.982;8.890;2022-09-09T13:34:31;97912.03;;;24.16;51.87
49949;BME280;35840;45.982;8.890;2022-09-09T13:37:04;97906.50;;;24.33;51.32
49949;BME280;35840;45.982;8.890;2022-09-09T13:39:36;97897.25;;;24.37;52.91
49949;BME280;35840;45.982;8.890;2022-09-09T13:42:04;97893.81;;;24.43;52.04
49949;BME280;35840;45.982;8.890;2022-09-09T13:44:36;97903.25;;;24.31;54.04
49949;BME280;35840;45.982;8.890;2022-09-09T13:47:05;97900.22;;;24.34;54.83
49949;BME280;35840;45.982;8.890;2022-09-09T13:49:36;97899.31;;;24.48;54.21
49949;BME280;35840;45.982;8.890;2022-09-09T13:52:10;97891.75;;;24.67;54.65
49949;BME280;35840;45.982;8.890;2022-09-09T13:54:38;97890.38;;;24.78;52.19
49949;BME280;35840;45.982;8.890;2022-09-09T13:57:05;97888.19;;;24.81;50.25
49949;BME280;35840;45.982;8.890;2022-09-09T13:59:40;97879.69;;;24.86;52.61
49949;BME280;35840;45.982;8.890;2022-09-09T14:02:29;97881.69;;;24.77;52.87
49949;BME280;35840;45.982;8.890;2022-09-09T14:04:57;97885.19;;;24.56;53.64
49949;BME280;35840;45.982;8.890;2022-09-09T14:07:24;97890.56;;;24.41;53.77
49949;BME280;35840;45.982;8.890;2022-09-09T14:09:51;97886.03;;;24.28;56.28
49949;BME280;35840;45.982;8.890;2022-09-09T14:12:18;97886.56;;;24.10;54.94
49949;BME280;35840;45.982;8.890;2022-09-09T14:14:46;97881.81;;;23.99;53.62
49949;BME280;35840;45.982;8.890;2022-09-09T14:17:13;97873.69;;;23.94;55.97
49949;BME280;35840;45.982;8.890;2022-09-09T14:19:40;97870.50;;;23.98;52.79
49949;BME280;35840;45.982;8.890;2022-09-09T14:22:07;97883.06;;;24.03;54.18
49949;BME280;35840;45.982;8.890;2022-09-09T14:24:33;97888.16;;;24.11;55.97
49949;BME280;35840;45.982;8.890;2022-09-09T14:27:00;97881.84;;;24.34;56.88
49949;BME280;35840;45.982;8.890;2022-09-09T14:29:27;97873.66;;;24.50;53.71
49949;BME280;35840;45.982;8.890;2022-09-09T14:31:53;97878.38;;;24.62;52.43
49949;BME280;35840;45.982;8.890;2022-09-09T14:34:20;97871.75;;;24.66;52.12
49949;BME280;35840;45.982;8.890;2022-09-09T14:36:46;97879.47;;;24.81;52.35
49949;BME280;35840;45.982;8.890;2022-09-09T14:39:13;97878.72;;;24.94;54.22
49949;BME280;35840;45.982;8.890;2022-09-09T14:41:40;97874.31;;;25.01;53.93
49949;BME280;35840;45.982;8.890;2022-09-09T14:44:07;97877.50;;;24.89;52.24
49949;BME280;35840;45.982;8.890;2022-09-09T14:46:34;97877.50;;;24.96;51.98
49949;BME280;35840;45.982;8.890;2022-09-09T14:49:01;97875.00;;;24.74;52.68
49949;BME280;35840;45.982;8.890;2022-09-09T14:51:28;97886.13;;;24.70;53.89
49949;BME280;35840;45.982;8.890;2022-09-09T14:53:58;97887.34;;;24.74;55.27
49949;BME280;35840;45.982;8.890;2022-09-09T14:56:28;97876.66;;;24.89;55.47
49949;BME280;35840;45.982;8.890;2022-09-09T14:58:57;97883.41;;;24.98;55.56
49949;BME280;35840;45.982;8.890;2022-09-09T15:01:25;97875.91;;;25.02;53.74
49949;BME280;35840;45.982;8.890;2022-09-09T15:03:58;97885.03;;;25.06;56.23
49949;BME280;35840;45.982;8.890;2022-09-09T15:06:29;97875.53;;;25.05;55.57